Oconto, Wisconsin
Current Conditions -  °F | °C
As of 3:55 PM on Tuesday 25 Nov 2014 (Local Time) from KOCQ Reporting Station
Overcast Overcast  
Wind Chill: 18°   Ceiling: 2500
Heat Index: 24°   Visibility: 10mi
Dew Point: 18°   Wind: 5mph
Humidity: 79%   Direction: 250°WSW
Pressure: 30.06"   Gusts: NA
Location:  44.89°N, 87.86°W
Report Text: KOCQ 252155Z AUTO 25004KT 10SM OVC025 M05/M08 A3006 RMK AO1 T10461077
Loading
Personal Weather Stations






























Interactive Weather Map New forecast layout! Learn more

10-Day Weather Forecast

Advertisements
Track Severe Weather on mobile